PBD450 USTR-UUWW
Flight info
| Callsign | PBD450 |
|---|---|
| Flight time | 2h 40m |
| Altitude | 34000 |
| Route | BEPAR1S BEPAR T448 BANAM T348 EKB M864 AGNOK T796 ORTIM L158 DIMGI DIMGI3B |
| Aircraft | B738/M-SDE2E3FGHIRWXY/LB1 |
Departure
| Time | 2026-04-21 17:18 |
|---|---|
| Airport | Roshchino International Airport (USTR) |
Arrival
| Time | 2026-04-21 19:58 |
|---|---|
| Airport | Vnukovo International Airport (UUWW) |
| Time | Latitude | Longitude | Altitude | Speed | Heading |
|---|---|---|---|---|---|
| 2026-04-21 16:29 | 57.18053 | 65.34851 | 340 ft | 0 kts | 45° |
| 2026-04-21 17:00 | 57.18045 | 65.34835 | 337 ft | 4 kts | 40° |
| 2026-04-21 17:00 | 57.18023 | 65.34807 | 338 ft | 4 kts | 25° |
| 2026-04-21 17:00 | 57.17998 | 65.34792 | 337 ft | 4 kts | 5° |
| 2026-04-21 17:00 | 57.17973 | 65.34797 | 337 ft | 4 kts | 328° |
| 2026-04-21 17:01 | 57.17966 | 65.34806 | 336 ft | 0 kts | 315° |
| 2026-04-21 17:05 | 57.17977 | 65.34785 | 338 ft | 6 kts | 315° |
| 2026-04-21 17:05 | 57.18028 | 65.34692 | 337 ft | 14 kts | 315° |
| 2026-04-21 17:05 | 57.18102 | 65.34554 | 338 ft | 15 kts | 315° |
| 2026-04-21 17:05 | 57.18177 | 65.34416 | 338 ft | 15 kts | 315° |
| 2026-04-21 17:06 | 57.18248 | 65.34286 | 339 ft | 14 kts | 315° |
| 2026-04-21 17:06 | 57.18317 | 65.34157 | 338 ft | 14 kts | 315° |
| 2026-04-21 17:06 | 57.18381 | 65.34038 | 338 ft | 13 kts | 315° |
| 2026-04-21 17:06 | 57.18444 | 65.33921 | 338 ft | 13 kts | 315° |
| 2026-04-21 17:07 | 57.18517 | 65.33785 | 337 ft | 16 kts | 315° |
| 2026-04-21 17:07 | 57.18583 | 65.33663 | 337 ft | 12 kts | 315° |
| 2026-04-21 17:07 | 57.18619 | 65.33530 | 339 ft | 12 kts | 271° |
| 2026-04-21 17:07 | 57.18615 | 65.33373 | 339 ft | 14 kts | 250° |
| 2026-04-21 17:08 | 57.18542 | 65.33217 | 331 ft | 18 kts | 226° |
| 2026-04-21 17:08 | 57.18477 | 65.33022 | 333 ft | 15 kts | 265° |
| 2026-04-21 17:08 | 57.18474 | 65.32836 | 332 ft | 14 kts | 268° |
| 2026-04-21 17:08 | 57.18470 | 65.32648 | 330 ft | 16 kts | 268° |
| 2026-04-21 17:09 | 57.18463 | 65.32237 | 342 ft | 17 kts | 268° |
| 2026-04-21 17:09 | 57.18459 | 65.32005 | 348 ft | 18 kts | 268° |
| 2026-04-21 17:09 | 57.18455 | 65.31817 | 362 ft | 14 kts | 267° |
| 2026-04-21 17:10 | 57.18412 | 65.31673 | 357 ft | 13 kts | 228° |
| 2026-04-21 17:10 | 57.18352 | 65.31550 | 366 ft | 14 kts | 228° |
| 2026-04-21 17:10 | 57.18271 | 65.31386 | 364 ft | 20 kts | 227° |
| 2026-04-21 17:10 | 57.18179 | 65.31201 | 361 ft | 19 kts | 227° |
| 2026-04-21 17:11 | 57.18090 | 65.31020 | 366 ft | 19 kts | 228° |
| 2026-04-21 17:11 | 57.18004 | 65.30846 | 371 ft | 18 kts | 228° |
| 2026-04-21 17:11 | 57.17922 | 65.30678 | 374 ft | 17 kts | 228° |
| 2026-04-21 17:11 | 57.17841 | 65.30515 | 376 ft | 17 kts | 227° |
| 2026-04-21 17:12 | 57.17764 | 65.30358 | 376 ft | 16 kts | 227° |
| 2026-04-21 17:12 | 57.17687 | 65.30201 | 378 ft | 18 kts | 228° |
| 2026-04-21 17:12 | 57.17602 | 65.30030 | 383 ft | 18 kts | 228° |
| 2026-04-21 17:12 | 57.17521 | 65.29864 | 386 ft | 17 kts | 227° |
| 2026-04-21 17:13 | 57.17441 | 65.29704 | 388 ft | 17 kts | 228° |
| 2026-04-21 17:13 | 57.17365 | 65.29550 | 388 ft | 16 kts | 227° |
| 2026-04-21 17:13 | 57.17287 | 65.29393 | 386 ft | 19 kts | 228° |
| 2026-04-21 17:13 | 57.17201 | 65.29217 | 387 ft | 18 kts | 227° |
| 2026-04-21 17:14 | 57.17117 | 65.29048 | 388 ft | 18 kts | 227° |
| 2026-04-21 17:14 | 57.17037 | 65.28884 | 387 ft | 17 kts | 228° |
| 2026-04-21 17:14 | 57.16959 | 65.28727 | 387 ft | 16 kts | 227° |
| 2026-04-21 17:14 | 57.16885 | 65.28579 | 382 ft | 14 kts | 227° |
| 2026-04-21 17:15 | 57.16859 | 65.28459 | 381 ft | 10 kts | 279° |
| 2026-04-21 17:15 | 57.16875 | 65.28358 | 378 ft | 0 kts | 287° |
| 2026-04-21 17:15 | 57.16875 | 65.28357 | 378 ft | 0 kts | 287° |
| 2026-04-21 17:15 | 57.16883 | 65.28309 | 377 ft | 8 kts | 287° |
| 2026-04-21 17:16 | 57.16910 | 65.28179 | 376 ft | 10 kts | 309° |
| 2026-04-21 17:16 | 57.16968 | 65.28206 | 378 ft | 3 kts | 48° |
| 2026-04-21 17:16 | 57.16968 | 65.28207 | 378 ft | 0 kts | 48° |
| 2026-04-21 17:17 | 57.17027 | 65.28327 | 379 ft | 42 kts | 47° |
| 2026-04-21 17:17 | 57.17388 | 65.29055 | 382 ft | 110 kts | 47° |
| 2026-04-21 17:17 | 57.18038 | 65.30384 | 380 ft | 168 kts | 49° |
| 2026-04-21 17:18 | 57.18866 | 65.32075 | 919 ft | 177 kts | 50° |
| 2026-04-21 17:18 | 57.19811 | 65.33485 | 1858 ft | 184 kts | 25° |
| 2026-04-21 17:18 | 57.21166 | 65.33467 | 2397 ft | 215 kts | 340° |
| 2026-04-21 17:18 | 57.22347 | 65.31567 | 2547 ft | 243 kts | 297° |
| 2026-04-21 17:19 | 57.22652 | 65.28470 | 2974 ft | 252 kts | 262° |
| 2026-04-21 17:19 | 57.22330 | 65.25252 | 3729 ft | 254 kts | 256° |
| 2026-04-21 17:19 | 57.21969 | 65.22108 | 4737 ft | 248 kts | 256° |
| 2026-04-21 17:19 | 57.21629 | 65.18957 | 5531 ft | 253 kts | 256° |
| 2026-04-21 17:20 | 57.21300 | 65.15759 | 6362 ft | 254 kts | 257° |
| 2026-04-21 17:20 | 57.20975 | 65.12532 | 7143 ft | 257 kts | 257° |
| 2026-04-21 17:20 | 57.20653 | 65.09306 | 7888 ft | 261 kts | 257° |
| 2026-04-21 17:20 | 57.20325 | 65.05993 | 8684 ft | 263 kts | 257° |
| 2026-04-21 17:21 | 57.19996 | 65.02656 | 9479 ft | 266 kts | 257° |
| 2026-04-21 17:21 | 57.19662 | 64.99273 | 10124 ft | 273 kts | 257° |
| 2026-04-21 17:21 | 57.19306 | 64.95674 | 10320 ft | 297 kts | 258° |
| 2026-04-21 17:21 | 57.18922 | 64.91801 | 10502 ft | 318 kts | 258° |
| 2026-04-21 17:22 | 57.18646 | 64.89027 | 10623 ft | 332 kts | 258° |
| 2026-04-21 17:22 | 57.18082 | 64.83327 | 11182 ft | 347 kts | 258° |
| 2026-04-21 17:22 | 57.17645 | 64.78926 | 11858 ft | 350 kts | 258° |
| 2026-04-21 17:22 | 57.17204 | 64.74489 | 12590 ft | 353 kts | 258° |
| 2026-04-21 17:23 | 57.16758 | 64.70027 | 13288 ft | 356 kts | 258° |
| 2026-04-21 17:23 | 57.16305 | 64.65521 | 13925 ft | 359 kts | 258° |
| 2026-04-21 17:23 | 57.15848 | 64.60977 | 14505 ft | 363 kts | 258° |
| 2026-04-21 17:23 | 57.15382 | 64.56382 | 15084 ft | 367 kts | 258° |
| 2026-04-21 17:24 | 57.14911 | 64.51754 | 15661 ft | 370 kts | 258° |
| 2026-04-21 17:24 | 57.14482 | 64.47051 | 16240 ft | 374 kts | 262° |
| 2026-04-21 17:24 | 57.14266 | 64.42256 | 16819 ft | 378 kts | 265° |
| 2026-04-21 17:24 | 57.14144 | 64.37397 | 17376 ft | 382 kts | 266° |
| 2026-04-21 17:25 | 57.14040 | 64.32485 | 17936 ft | 385 kts | 266° |
| 2026-04-21 17:25 | 57.13923 | 64.27545 | 18451 ft | 388 kts | 265° |
| 2026-04-21 17:25 | 57.13790 | 64.22589 | 19016 ft | 388 kts | 265° |
| 2026-04-21 17:25 | 57.13641 | 64.17624 | 19577 ft | 389 kts | 265° |
| 2026-04-21 17:26 | 57.13483 | 64.12655 | 20108 ft | 390 kts | 265° |
| 2026-04-21 17:26 | 57.13318 | 64.07658 | 20632 ft | 391 kts | 265° |
| 2026-04-21 17:26 | 57.13149 | 64.02659 | 21141 ft | 393 kts | 265° |
| 2026-04-21 17:26 | 57.12977 | 63.97637 | 21633 ft | 394 kts | 265° |
| 2026-04-21 17:27 | 57.12803 | 63.92584 | 22110 ft | 396 kts | 265° |
| 2026-04-21 17:27 | 57.12627 | 63.87516 | 22589 ft | 398 kts | 265° |
| 2026-04-21 17:27 | 57.12448 | 63.82434 | 23037 ft | 399 kts | 265° |
| 2026-04-21 17:27 | 57.12264 | 63.77311 | 23452 ft | 401 kts | 264° |
| 2026-04-21 17:28 | 57.11898 | 63.72227 | 23803 ft | 402 kts | 257° |
| 2026-04-21 17:28 | 57.11310 | 63.67174 | 24156 ft | 404 kts | 257° |
| 2026-04-21 17:28 | 57.10705 | 63.62116 | 24496 ft | 406 kts | 257° |
| 2026-04-21 17:28 | 57.10095 | 63.57040 | 24832 ft | 408 kts | 257° |
| 2026-04-21 17:29 | 57.09649 | 63.51865 | 25155 ft | 411 kts | 265° |
| 2026-04-21 17:29 | 57.09631 | 63.46587 | 25486 ft | 414 kts | 269° |
| 2026-04-21 17:29 | 57.09663 | 63.41281 | 25812 ft | 416 kts | 268° |
| 2026-04-21 17:29 | 57.09687 | 63.35961 | 26119 ft | 417 kts | 268° |
| 2026-04-21 17:30 | 57.09702 | 63.30603 | 26430 ft | 419 kts | 268° |
| 2026-04-21 17:30 | 57.09709 | 63.25240 | 26732 ft | 421 kts | 268° |
| 2026-04-21 17:30 | 57.09710 | 63.19841 | 27035 ft | 422 kts | 268° |
| 2026-04-21 17:30 | 57.09707 | 63.14435 | 27324 ft | 424 kts | 268° |
| 2026-04-21 17:31 | 57.09699 | 63.08995 | 27619 ft | 425 kts | 268° |
| 2026-04-21 17:31 | 57.09689 | 63.03563 | 28042 ft | 424 kts | 268° |
| 2026-04-21 17:31 | 57.09676 | 62.98164 | 28537 ft | 421 kts | 268° |
| 2026-04-21 17:31 | 57.09661 | 62.92801 | 28997 ft | 418 kts | 267° |
| 2026-04-21 17:32 | 57.09650 | 62.89260 | 29265 ft | 418 kts | 267° |
| 2026-04-21 17:32 | 57.09625 | 62.82120 | 29787 ft | 417 kts | 267° |
| 2026-04-21 17:32 | 57.09603 | 62.76809 | 30146 ft | 415 kts | 267° |
| 2026-04-21 17:32 | 57.09579 | 62.71514 | 30481 ft | 414 kts | 267° |
| 2026-04-21 17:33 | 57.09553 | 62.66221 | 30786 ft | 413 kts | 267° |
| 2026-04-21 17:33 | 57.09525 | 62.61013 | 31086 ft | 412 kts | 267° |
| 2026-04-21 17:33 | 57.09495 | 62.55754 | 31411 ft | 411 kts | 266° |
| 2026-04-21 17:33 | 57.09462 | 62.50505 | 31723 ft | 410 kts | 266° |
| 2026-04-21 17:34 | 57.09428 | 62.45262 | 32007 ft | 410 kts | 266° |
| 2026-04-21 17:34 | 57.09391 | 62.40029 | 32303 ft | 409 kts | 266° |
| 2026-04-21 17:34 | 57.09352 | 62.34805 | 32592 ft | 408 kts | 266° |
| 2026-04-21 17:34 | 57.09310 | 62.29520 | 32855 ft | 408 kts | 266° |
| 2026-04-21 17:35 | 57.09267 | 62.24292 | 33079 ft | 409 kts | 266° |
| 2026-04-21 17:35 | 57.09222 | 62.19129 | 33297 ft | 410 kts | 266° |
| 2026-04-21 17:35 | 57.09173 | 62.13828 | 33577 ft | 409 kts | 266° |
| 2026-04-21 17:35 | 57.09125 | 62.08683 | 33743 ft | 409 kts | 266° |
| 2026-04-21 17:36 | 57.09018 | 61.98184 | 33735 ft | 410 kts | 265° |
| 2026-04-21 17:36 | 57.08904 | 61.87734 | 33739 ft | 407 kts | 265° |
| 2026-04-21 17:37 | 57.08782 | 61.77328 | 33745 ft | 406 kts | 265° |
| 2026-04-21 17:37 | 57.08651 | 61.66983 | 33737 ft | 405 kts | 265° |
| 2026-04-21 17:38 | 57.08512 | 61.56629 | 33748 ft | 405 kts | 265° |
| 2026-04-21 17:38 | 57.08363 | 61.46263 | 33747 ft | 406 kts | 264° |
| 2026-04-21 17:39 | 57.08205 | 61.35846 | 33748 ft | 409 kts | 264° |
| 2026-04-21 17:39 | 57.08038 | 61.25382 | 33744 ft | 411 kts | 264° |
| 2026-04-21 17:40 | 57.07861 | 61.14843 | 33747 ft | 413 kts | 264° |
| 2026-04-21 17:40 | 57.07676 | 61.04322 | 33745 ft | 415 kts | 264° |
| 2026-04-21 17:41 | 57.07479 | 60.93627 | 33748 ft | 416 kts | 264° |
| 2026-04-21 17:41 | 57.07275 | 60.83055 | 33742 ft | 417 kts | 264° |
| 2026-04-21 17:42 | 57.07061 | 60.72406 | 33744 ft | 417 kts | 264° |
| 2026-04-21 17:42 | 57.06837 | 60.61754 | 33740 ft | 417 kts | 264° |
| 2026-04-21 17:43 | 57.06605 | 60.51110 | 33744 ft | 416 kts | 263° |
| 2026-04-21 17:43 | 57.06364 | 60.40492 | 33740 ft | 416 kts | 263° |
| 2026-04-21 17:44 | 57.06114 | 60.29896 | 33741 ft | 415 kts | 263° |
| 2026-04-21 17:44 | 57.05856 | 60.19315 | 33741 ft | 415 kts | 263° |
| 2026-04-21 17:45 | 57.05589 | 60.08736 | 33749 ft | 414 kts | 263° |
| 2026-04-21 17:45 | 57.05313 | 59.98171 | 33744 ft | 414 kts | 263° |
| 2026-04-21 17:46 | 57.05077 | 59.89402 | 33750 ft | 414 kts | 263° |
| 2026-04-21 17:46 | 57.04785 | 59.78840 | 33741 ft | 414 kts | 263° |
| 2026-04-21 17:47 | 57.04484 | 59.68269 | 33751 ft | 415 kts | 263° |
| 2026-04-21 17:47 | 57.04173 | 59.57687 | 33747 ft | 415 kts | 263° |
| 2026-04-21 17:48 | 57.03853 | 59.47080 | 33752 ft | 416 kts | 263° |
| 2026-04-21 17:48 | 57.03524 | 59.36470 | 33744 ft | 417 kts | 263° |
| 2026-04-21 17:49 | 57.03185 | 59.25846 | 33757 ft | 417 kts | 263° |
| 2026-04-21 17:49 | 57.02836 | 59.15190 | 33750 ft | 418 kts | 263° |
| 2026-04-21 17:50 | 57.02477 | 59.04512 | 33818 ft | 422 kts | 262° |
| 2026-04-21 17:50 | 57.02100 | 58.93652 | 33752 ft | 430 kts | 262° |
| 2026-04-21 17:51 | 57.01714 | 58.82698 | 33751 ft | 431 kts | 262° |
| 2026-04-21 17:51 | 57.01318 | 58.71726 | 33744 ft | 432 kts | 262° |
| 2026-04-21 17:52 | 57.00911 | 58.60734 | 33738 ft | 432 kts | 262° |
| 2026-04-21 17:52 | 57.00496 | 58.49818 | 33741 ft | 432 kts | 262° |
| 2026-04-21 17:53 | 57.00069 | 58.38824 | 33736 ft | 432 kts | 262° |
| 2026-04-21 17:53 | 56.99632 | 58.27824 | 33740 ft | 433 kts | 262° |
| 2026-04-21 17:54 | 56.99184 | 58.16800 | 33740 ft | 433 kts | 262° |
| 2026-04-21 17:54 | 56.98726 | 58.05781 | 33734 ft | 434 kts | 262° |
| 2026-04-21 17:55 | 56.98259 | 57.94759 | 33730 ft | 434 kts | 262° |
| 2026-04-21 17:55 | 56.97781 | 57.83724 | 33724 ft | 434 kts | 262° |
| 2026-04-21 17:56 | 56.97293 | 57.72681 | 33723 ft | 435 kts | 262° |
| 2026-04-21 17:56 | 56.96797 | 57.61697 | 33719 ft | 435 kts | 262° |
| 2026-04-21 17:57 | 56.96290 | 57.50656 | 33713 ft | 435 kts | 262° |
| 2026-04-21 17:57 | 56.95771 | 57.39591 | 33711 ft | 436 kts | 262° |
| 2026-04-21 17:58 | 56.95243 | 57.28527 | 33715 ft | 436 kts | 261° |
| 2026-04-21 17:58 | 56.94703 | 57.17447 | 33710 ft | 437 kts | 261° |
| 2026-04-21 17:59 | 56.94153 | 57.06355 | 33706 ft | 438 kts | 261° |
| 2026-04-21 17:59 | 56.93592 | 56.95234 | 33703 ft | 439 kts | 261° |
| 2026-04-21 18:00 | 56.93020 | 56.84101 | 33699 ft | 439 kts | 261° |
| 2026-04-21 18:00 | 56.92438 | 56.72961 | 33699 ft | 440 kts | 261° |
| 2026-04-21 18:01 | 56.91845 | 56.61809 | 33691 ft | 441 kts | 261° |
| 2026-04-21 18:01 | 56.91242 | 56.50647 | 33690 ft | 441 kts | 261° |
| 2026-04-21 18:02 | 56.90627 | 56.39476 | 33690 ft | 441 kts | 261° |
| 2026-04-21 18:02 | 56.90003 | 56.28295 | 33684 ft | 442 kts | 261° |
| 2026-04-21 18:03 | 56.89367 | 56.17109 | 33679 ft | 442 kts | 261° |
| 2026-04-21 18:03 | 56.88724 | 56.05930 | 33676 ft | 442 kts | 261° |
| 2026-04-21 18:04 | 56.88065 | 55.94818 | 33674 ft | 442 kts | 259° |
| 2026-04-21 18:04 | 56.86419 | 55.84105 | 33683 ft | 437 kts | 245° |
| 2026-04-21 18:05 | 56.84027 | 55.73894 | 33682 ft | 437 kts | 245° |
| 2026-04-21 18:05 | 56.81627 | 55.63689 | 33683 ft | 438 kts | 245° |
| 2026-04-21 18:06 | 56.79248 | 55.53472 | 33683 ft | 438 kts | 245° |
| 2026-04-21 18:06 | 56.76871 | 55.43248 | 33681 ft | 438 kts | 245° |
| 2026-04-21 18:07 | 56.74486 | 55.33029 | 33690 ft | 438 kts | 245° |
| 2026-04-21 18:07 | 56.72090 | 55.22811 | 33681 ft | 438 kts | 245° |
| 2026-04-21 18:08 | 56.69689 | 55.12621 | 33688 ft | 438 kts | 245° |
| 2026-04-21 18:08 | 56.67278 | 55.02440 | 33691 ft | 438 kts | 245° |
| 2026-04-21 18:09 | 56.64859 | 54.92275 | 33695 ft | 438 kts | 245° |
| 2026-04-21 18:09 | 56.62429 | 54.82109 | 33686 ft | 438 kts | 245° |
| 2026-04-21 18:10 | 56.59993 | 54.71968 | 33684 ft | 439 kts | 245° |
| 2026-04-21 18:10 | 56.57545 | 54.61821 | 33704 ft | 439 kts | 245° |
| 2026-04-21 18:11 | 56.55088 | 54.51685 | 33696 ft | 439 kts | 245° |
| 2026-04-21 18:11 | 56.52623 | 54.41561 | 33697 ft | 439 kts | 245° |
| 2026-04-21 18:12 | 56.50150 | 54.31443 | 33692 ft | 440 kts | 245° |
| 2026-04-21 18:12 | 56.47659 | 54.21329 | 33697 ft | 440 kts | 245° |
| 2026-04-21 18:13 | 56.45173 | 54.11308 | 33697 ft | 440 kts | 245° |
| 2026-04-21 18:13 | 56.42663 | 54.01217 | 33694 ft | 440 kts | 245° |
| 2026-04-21 18:14 | 56.38888 | 53.86091 | 33695 ft | 440 kts | 245° |
| 2026-04-21 18:15 | 56.36370 | 53.76023 | 33691 ft | 440 kts | 245° |
| 2026-04-21 18:15 | 56.33843 | 53.65958 | 33689 ft | 440 kts | 245° |
| 2026-04-21 18:16 | 56.31293 | 53.55933 | 33689 ft | 440 kts | 244° |
| 2026-04-21 18:16 | 56.28711 | 53.45940 | 33689 ft | 440 kts | 244° |
| 2026-04-21 18:17 | 56.26119 | 53.35951 | 33686 ft | 440 kts | 244° |
| 2026-04-21 18:17 | 56.23523 | 53.25970 | 33679 ft | 441 kts | 244° |
| 2026-04-21 18:18 | 56.20922 | 53.16007 | 33682 ft | 441 kts | 244° |
| 2026-04-21 18:18 | 56.18311 | 53.06052 | 33684 ft | 441 kts | 244° |
| 2026-04-21 18:19 | 56.15691 | 52.96102 | 33683 ft | 441 kts | 244° |
| 2026-04-21 18:19 | 56.13076 | 52.86219 | 33683 ft | 441 kts | 244° |
| 2026-04-21 18:20 | 56.10438 | 52.76286 | 33681 ft | 442 kts | 244° |
| 2026-04-21 18:20 | 56.07791 | 52.66361 | 33684 ft | 442 kts | 244° |
| 2026-04-21 18:21 | 56.05133 | 52.56421 | 33681 ft | 442 kts | 244° |
| 2026-04-21 18:21 | 56.02484 | 52.46489 | 33677 ft | 443 kts | 244° |
| 2026-04-21 18:22 | 55.99825 | 52.36547 | 33680 ft | 443 kts | 244° |
| 2026-04-21 18:22 | 55.97156 | 52.26613 | 33683 ft | 444 kts | 244° |
| 2026-04-21 18:23 | 55.94479 | 52.16697 | 33678 ft | 444 kts | 244° |
| 2026-04-21 18:23 | 55.91791 | 52.06784 | 33681 ft | 444 kts | 244° |
| 2026-04-21 18:24 | 55.89109 | 51.96937 | 33681 ft | 444 kts | 244° |
| 2026-04-21 18:24 | 55.86404 | 51.87046 | 33683 ft | 444 kts | 244° |
| 2026-04-21 18:25 | 55.83693 | 51.77176 | 33677 ft | 444 kts | 244° |
| 2026-04-21 18:25 | 55.80973 | 51.67317 | 33680 ft | 444 kts | 244° |
| 2026-04-21 18:26 | 55.78245 | 51.57469 | 33677 ft | 444 kts | 244° |
| 2026-04-21 18:26 | 55.75512 | 51.47638 | 33678 ft | 443 kts | 244° |
| 2026-04-21 18:27 | 55.72807 | 51.37800 | 33677 ft | 443 kts | 246° |
| 2026-04-21 18:27 | 55.70401 | 51.27750 | 33682 ft | 443 kts | 248° |
| 2026-04-21 18:28 | 55.68068 | 51.17647 | 33685 ft | 443 kts | 248° |
| 2026-04-21 18:28 | 55.65706 | 51.07565 | 33684 ft | 443 kts | 248° |
| 2026-04-21 18:29 | 55.63332 | 50.97579 | 33681 ft | 443 kts | 247° |
| 2026-04-21 18:29 | 55.60928 | 50.87543 | 33687 ft | 443 kts | 247° |
| 2026-04-21 18:30 | 55.58511 | 50.77504 | 33683 ft | 443 kts | 247° |
| 2026-04-21 18:30 | 55.56090 | 50.67486 | 33685 ft | 443 kts | 247° |
| 2026-04-21 18:31 | 55.53660 | 50.57477 | 33687 ft | 443 kts | 247° |
| 2026-04-21 18:31 | 55.51221 | 50.47478 | 33690 ft | 443 kts | 247° |
| 2026-04-21 18:32 | 55.48774 | 50.37489 | 33689 ft | 444 kts | 247° |
| 2026-04-21 18:32 | 55.46318 | 50.27510 | 33693 ft | 444 kts | 247° |
| 2026-04-21 18:33 | 55.43857 | 50.17553 | 33693 ft | 444 kts | 247° |
| 2026-04-21 18:33 | 55.41384 | 50.07585 | 33700 ft | 444 kts | 247° |
| 2026-04-21 18:34 | 55.39450 | 49.97329 | 33707 ft | 442 kts | 260° |
| 2026-04-21 18:34 | 55.39167 | 49.86544 | 33700 ft | 443 kts | 274° |
| 2026-04-21 18:35 | 55.39651 | 49.77585 | 33699 ft | 443 kts | 275° |
| 2026-04-21 18:35 | 55.40242 | 49.66773 | 33700 ft | 444 kts | 275° |
| 2026-04-21 18:36 | 55.40779 | 49.55951 | 33699 ft | 444 kts | 274° |
| 2026-04-21 18:36 | 55.41293 | 49.45116 | 33700 ft | 444 kts | 274° |
| 2026-04-21 18:37 | 55.41798 | 49.34277 | 33693 ft | 445 kts | 274° |
| 2026-04-21 18:37 | 55.42289 | 49.23420 | 33694 ft | 445 kts | 274° |
| 2026-04-21 18:38 | 55.42771 | 49.12557 | 33701 ft | 445 kts | 274° |
| 2026-04-21 18:38 | 55.43243 | 49.01746 | 33704 ft | 445 kts | 274° |
| 2026-04-21 18:39 | 55.43707 | 48.90865 | 33707 ft | 446 kts | 274° |
| 2026-04-21 18:39 | 55.44163 | 48.79977 | 33714 ft | 446 kts | 274° |
| 2026-04-21 18:40 | 55.44610 | 48.69081 | 33716 ft | 446 kts | 274° |
| 2026-04-21 18:40 | 55.45048 | 48.58181 | 33724 ft | 446 kts | 274° |
| 2026-04-21 18:41 | 55.46195 | 48.47463 | 33728 ft | 446 kts | 286° |
| 2026-04-21 18:41 | 55.48059 | 48.37021 | 33722 ft | 447 kts | 287° |
| 2026-04-21 18:42 | 55.49925 | 48.26564 | 33725 ft | 447 kts | 287° |
| 2026-04-21 18:42 | 55.51748 | 48.16079 | 33725 ft | 447 kts | 286° |
| 2026-04-21 18:43 | 55.53544 | 48.05589 | 33726 ft | 447 kts | 286° |
| 2026-04-21 18:43 | 55.55331 | 47.95072 | 33734 ft | 447 kts | 286° |
| 2026-04-21 18:44 | 55.57110 | 47.84542 | 33731 ft | 447 kts | 286° |
| 2026-04-21 18:44 | 55.58879 | 47.74015 | 33737 ft | 447 kts | 286° |
| 2026-04-21 18:45 | 55.60639 | 47.63475 | 33738 ft | 447 kts | 286° |
| 2026-04-21 18:45 | 55.62391 | 47.52926 | 33734 ft | 447 kts | 286° |
| 2026-04-21 18:46 | 55.64121 | 47.42441 | 33738 ft | 447 kts | 286° |
| 2026-04-21 18:46 | 55.65855 | 47.31871 | 33743 ft | 447 kts | 286° |
| 2026-04-21 18:47 | 55.67578 | 47.21305 | 33742 ft | 447 kts | 286° |
| 2026-04-21 18:47 | 55.69293 | 47.10729 | 33743 ft | 446 kts | 286° |
| 2026-04-21 18:48 | 55.70998 | 47.00143 | 33738 ft | 446 kts | 286° |
| 2026-04-21 18:48 | 55.72695 | 46.89553 | 33742 ft | 446 kts | 286° |
| 2026-04-21 18:49 | 55.74384 | 46.78949 | 33746 ft | 446 kts | 286° |
| 2026-04-21 18:49 | 55.75780 | 46.70130 | 33760 ft | 446 kts | 286° |
| 2026-04-21 18:50 | 55.77734 | 46.57724 | 33759 ft | 446 kts | 285° |
| 2026-04-21 18:50 | 55.79336 | 46.47077 | 33754 ft | 447 kts | 281° |
| 2026-04-21 18:51 | 55.79886 | 46.36160 | 33764 ft | 447 kts | 273° |
| 2026-04-21 18:51 | 55.80180 | 46.25132 | 33774 ft | 447 kts | 273° |
| 2026-04-21 18:52 | 55.80492 | 46.14092 | 33773 ft | 447 kts | 274° |
| 2026-04-21 18:52 | 55.80825 | 46.03037 | 33773 ft | 448 kts | 274° |
| 2026-04-21 18:53 | 55.81157 | 45.91990 | 33778 ft | 448 kts | 274° |
| 2026-04-21 18:53 | 55.81481 | 45.80929 | 33789 ft | 448 kts | 274° |
| 2026-04-21 18:54 | 55.81793 | 45.69869 | 33792 ft | 448 kts | 273° |
| 2026-04-21 18:54 | 55.82096 | 45.58798 | 33796 ft | 448 kts | 273° |
| 2026-04-21 18:55 | 55.82340 | 45.49586 | 33798 ft | 448 kts | 273° |
| 2026-04-21 18:55 | 55.82671 | 45.36634 | 33803 ft | 449 kts | 273° |
| 2026-04-21 18:56 | 55.82944 | 45.25539 | 33802 ft | 449 kts | 273° |
| 2026-04-21 18:56 | 55.83207 | 45.14433 | 33812 ft | 449 kts | 273° |
| 2026-04-21 18:57 | 55.83462 | 45.03324 | 33813 ft | 449 kts | 272° |
| 2026-04-21 18:57 | 55.83707 | 44.92205 | 33815 ft | 450 kts | 272° |
| 2026-04-21 18:58 | 55.83946 | 44.81087 | 33818 ft | 450 kts | 272° |
| 2026-04-21 18:58 | 55.84176 | 44.70043 | 33823 ft | 450 kts | 272° |
| 2026-04-21 18:59 | 55.84398 | 44.58919 | 33828 ft | 450 kts | 272° |
| 2026-04-21 18:59 | 55.84609 | 44.47797 | 33834 ft | 450 kts | 272° |
| 2026-04-21 19:00 | 55.84811 | 44.36660 | 33835 ft | 450 kts | 272° |
| 2026-04-21 19:00 | 55.85002 | 44.25510 | 33843 ft | 450 kts | 272° |
| 2026-04-21 19:01 | 55.85183 | 44.14391 | 33846 ft | 450 kts | 272° |
| 2026-04-21 19:01 | 55.85354 | 44.03265 | 33852 ft | 450 kts | 272° |
| 2026-04-21 19:02 | 55.85516 | 43.92126 | 33859 ft | 450 kts | 272° |
| 2026-04-21 19:02 | 55.85667 | 43.80986 | 33862 ft | 450 kts | 272° |
| 2026-04-21 19:03 | 55.85808 | 43.69918 | 33869 ft | 451 kts | 272° |
| 2026-04-21 19:03 | 55.85941 | 43.58759 | 33872 ft | 451 kts | 271° |
| 2026-04-21 19:04 | 55.86063 | 43.47595 | 33876 ft | 451 kts | 271° |
| 2026-04-21 19:04 | 55.86179 | 43.36421 | 33876 ft | 451 kts | 271° |
| 2026-04-21 19:05 | 55.86288 | 43.25241 | 33883 ft | 452 kts | 271° |
| 2026-04-21 19:05 | 55.86387 | 43.14058 | 33885 ft | 452 kts | 271° |
| 2026-04-21 19:06 | 55.86475 | 43.02869 | 33885 ft | 452 kts | 271° |
| 2026-04-21 19:06 | 55.86554 | 42.91659 | 33886 ft | 452 kts | 271° |
| 2026-04-21 19:07 | 55.86622 | 42.80464 | 33890 ft | 452 kts | 271° |
| 2026-04-21 19:07 | 55.86680 | 42.69257 | 33893 ft | 452 kts | 271° |
| 2026-04-21 19:08 | 55.86728 | 42.58057 | 33894 ft | 452 kts | 271° |
| 2026-04-21 19:08 | 55.86766 | 42.46867 | 33901 ft | 452 kts | 271° |
| 2026-04-21 19:09 | 55.86793 | 42.35673 | 33899 ft | 452 kts | 271° |
| 2026-04-21 19:09 | 55.86811 | 42.24559 | 33901 ft | 452 kts | 271° |
| 2026-04-21 19:10 | 55.86818 | 42.13373 | 33899 ft | 451 kts | 271° |
| 2026-04-21 19:10 | 55.86816 | 42.02193 | 33896 ft | 451 kts | 271° |
| 2026-04-21 19:11 | 55.86803 | 41.91018 | 33901 ft | 451 kts | 271° |
| 2026-04-21 19:11 | 55.86782 | 41.79849 | 33899 ft | 451 kts | 271° |
| 2026-04-21 19:12 | 55.86645 | 41.70555 | 33901 ft | 451 kts | 268° |
| 2026-04-21 19:12 | 55.86207 | 41.57577 | 33904 ft | 451 kts | 267° |
| 2026-04-21 19:13 | 55.85825 | 41.46419 | 33903 ft | 451 kts | 268° |
| 2026-04-21 19:13 | 55.85463 | 41.35263 | 33901 ft | 451 kts | 268° |
| 2026-04-21 19:14 | 55.85101 | 41.24109 | 33903 ft | 451 kts | 268° |
| 2026-04-21 19:14 | 55.84730 | 41.12951 | 33899 ft | 451 kts | 268° |
| 2026-04-21 19:15 | 55.84347 | 41.01805 | 33894 ft | 451 kts | 267° |
| 2026-04-21 19:15 | 55.83955 | 40.90664 | 33900 ft | 451 kts | 267° |
| 2026-04-21 19:15 | 55.83755 | 40.85097 | 33793 ft | 453 kts | 267° |
| 2026-04-21 19:16 | 55.83551 | 40.79493 | 33483 ft | 452 kts | 267° |
| 2026-04-21 19:16 | 55.83347 | 40.73929 | 33215 ft | 449 kts | 267° |
| 2026-04-21 19:16 | 55.83141 | 40.68387 | 32946 ft | 448 kts | 267° |
| 2026-04-21 19:16 | 55.82933 | 40.62853 | 32688 ft | 449 kts | 267° |
| 2026-04-21 19:17 | 55.82495 | 40.51782 | 32158 ft | 449 kts | 267° |
| 2026-04-21 19:17 | 55.82269 | 40.46247 | 31899 ft | 448 kts | 267° |
| 2026-04-21 19:17 | 55.82041 | 40.40719 | 31643 ft | 448 kts | 266° |
| 2026-04-21 19:18 | 55.81811 | 40.35204 | 31388 ft | 447 kts | 266° |
| 2026-04-21 19:18 | 55.81581 | 40.29703 | 31131 ft | 445 kts | 266° |
| 2026-04-21 19:18 | 55.81349 | 40.24231 | 30880 ft | 442 kts | 267° |
| 2026-04-21 19:18 | 55.81118 | 40.18806 | 30631 ft | 439 kts | 266° |
| 2026-04-21 19:19 | 55.80885 | 40.13426 | 30203 ft | 433 kts | 266° |
| 2026-04-21 19:19 | 55.80654 | 40.08120 | 29723 ft | 428 kts | 267° |
| 2026-04-21 19:19 | 55.80423 | 40.02873 | 29217 ft | 423 kts | 267° |
| 2026-04-21 19:19 | 55.80193 | 39.97692 | 28721 ft | 418 kts | 266° |
| 2026-04-21 19:20 | 55.79965 | 39.92587 | 28256 ft | 413 kts | 267° |
| 2026-04-21 19:20 | 55.79739 | 39.87562 | 28114 ft | 400 kts | 267° |
| 2026-04-21 19:20 | 55.79516 | 39.82697 | 27895 ft | 391 kts | 266° |
| 2026-04-21 19:20 | 55.79275 | 39.77957 | 27779 ft | 380 kts | 265° |
| 2026-04-21 19:21 | 55.78976 | 39.73333 | 27665 ft | 376 kts | 264° |
| 2026-04-21 19:21 | 55.78656 | 39.68719 | 27606 ft | 388 kts | 264° |
| 2026-04-21 19:21 | 55.78316 | 39.63829 | 27503 ft | 399 kts | 264° |
| 2026-04-21 19:21 | 55.77977 | 39.58918 | 27375 ft | 400 kts | 264° |
| 2026-04-21 19:22 | 55.77648 | 39.54103 | 27252 ft | 397 kts | 264° |
| 2026-04-21 19:22 | 55.77320 | 39.49260 | 27139 ft | 394 kts | 264° |
| 2026-04-21 19:22 | 55.76992 | 39.44444 | 27029 ft | 391 kts | 264° |
| 2026-04-21 19:22 | 55.76664 | 39.39652 | 26919 ft | 389 kts | 264° |
| 2026-04-21 19:23 | 55.76334 | 39.34894 | 26815 ft | 388 kts | 264° |
| 2026-04-21 19:23 | 55.76001 | 39.30153 | 26712 ft | 387 kts | 264° |
| 2026-04-21 19:23 | 55.75667 | 39.25413 | 26609 ft | 386 kts | 264° |
| 2026-04-21 19:23 | 55.75331 | 39.20671 | 26500 ft | 387 kts | 264° |
| 2026-04-21 19:24 | 55.75109 | 39.17539 | 26431 ft | 387 kts | 264° |
| 2026-04-21 19:24 | 55.74771 | 39.12801 | 26331 ft | 388 kts | 264° |
| 2026-04-21 19:24 | 55.74430 | 39.08048 | 26223 ft | 388 kts | 264° |
| 2026-04-21 19:24 | 55.74088 | 39.03285 | 26115 ft | 389 kts | 264° |
| 2026-04-21 19:25 | 55.73743 | 38.98517 | 26009 ft | 390 kts | 264° |
| 2026-04-21 19:25 | 55.73395 | 38.93747 | 25894 ft | 390 kts | 264° |
| 2026-04-21 19:25 | 55.73033 | 38.88936 | 25480 ft | 395 kts | 264° |
| 2026-04-21 19:25 | 55.72659 | 38.84136 | 25082 ft | 391 kts | 264° |
| 2026-04-21 19:26 | 55.72287 | 38.79376 | 24689 ft | 388 kts | 264° |
| 2026-04-21 19:26 | 55.71916 | 38.74647 | 24291 ft | 385 kts | 264° |
| 2026-04-21 19:26 | 55.71547 | 38.69960 | 23913 ft | 382 kts | 264° |
| 2026-04-21 19:26 | 55.71191 | 38.65316 | 23534 ft | 379 kts | 264° |
| 2026-04-21 19:27 | 55.70844 | 38.60704 | 23097 ft | 376 kts | 264° |
| 2026-04-21 19:27 | 55.70503 | 38.56143 | 22686 ft | 372 kts | 265° |
| 2026-04-21 19:27 | 55.70161 | 38.51628 | 22318 ft | 367 kts | 264° |
| 2026-04-21 19:27 | 55.69819 | 38.47161 | 21949 ft | 363 kts | 264° |
| 2026-04-21 19:28 | 55.69479 | 38.42738 | 21479 ft | 362 kts | 264° |
| 2026-04-21 19:28 | 55.69139 | 38.38298 | 20934 ft | 364 kts | 265° |
| 2026-04-21 19:28 | 55.68798 | 38.33858 | 20496 ft | 363 kts | 265° |
| 2026-04-21 19:28 | 55.68462 | 38.29500 | 20113 ft | 360 kts | 265° |
| 2026-04-21 19:29 | 55.68121 | 38.25123 | 19722 ft | 357 kts | 265° |
| 2026-04-21 19:29 | 55.67780 | 38.20773 | 19319 ft | 356 kts | 265° |
| 2026-04-21 19:29 | 55.67432 | 38.16444 | 18912 ft | 354 kts | 264° |
| 2026-04-21 19:29 | 55.67081 | 38.12138 | 18529 ft | 352 kts | 265° |
| 2026-04-21 19:30 | 55.66731 | 38.07846 | 18136 ft | 351 kts | 265° |
| 2026-04-21 19:30 | 55.66383 | 38.03584 | 17688 ft | 349 kts | 264° |
| 2026-04-21 19:30 | 55.66035 | 37.99332 | 17254 ft | 348 kts | 264° |
| 2026-04-21 19:30 | 55.65687 | 37.95100 | 16823 ft | 347 kts | 264° |
| 2026-04-21 19:31 | 55.65338 | 37.90887 | 16408 ft | 345 kts | 264° |
| 2026-04-21 19:31 | 55.64902 | 37.86719 | 15987 ft | 346 kts | 254° |
| 2026-04-21 19:31 | 55.63840 | 37.82872 | 15575 ft | 348 kts | 242° |
| 2026-04-21 19:31 | 55.62600 | 37.79211 | 15200 ft | 347 kts | 240° |
| 2026-04-21 19:32 | 55.61060 | 37.75929 | 14745 ft | 350 kts | 220° |
| 2026-04-21 19:32 | 55.58980 | 37.73780 | 14471 ft | 345 kts | 200° |
| 2026-04-21 19:32 | 55.57440 | 37.72888 | 14322 ft | 343 kts | 196° |
| 2026-04-21 19:32 | 55.56967 | 37.72637 | 14272 ft | 342 kts | 196° |
| 2026-04-21 19:33 | 55.55559 | 37.71903 | 14115 ft | 339 kts | 195° |
| 2026-04-21 19:33 | 55.52612 | 37.70393 | 13967 ft | 326 kts | 195° |
| 2026-04-21 19:33 | 55.50457 | 37.69279 | 13778 ft | 320 kts | 195° |
| 2026-04-21 19:33 | 55.48331 | 37.68169 | 13423 ft | 319 kts | 196° |
| 2026-04-21 19:34 | 55.46204 | 37.67050 | 13067 ft | 318 kts | 196° |
| 2026-04-21 19:34 | 55.44092 | 37.65931 | 12739 ft | 316 kts | 196° |
| 2026-04-21 19:34 | 55.41986 | 37.64813 | 12407 ft | 315 kts | 196° |
| 2026-04-21 19:34 | 55.39892 | 37.63700 | 12089 ft | 313 kts | 196° |
| 2026-04-21 19:35 | 55.37814 | 37.62595 | 11944 ft | 313 kts | 196° |
| 2026-04-21 19:35 | 55.33624 | 37.60370 | 11908 ft | 313 kts | 196° |
| 2026-04-21 19:35 | 55.31544 | 37.59267 | 11908 ft | 312 kts | 196° |
| 2026-04-21 19:36 | 55.29460 | 37.58162 | 11916 ft | 313 kts | 196° |
| 2026-04-21 19:36 | 55.27377 | 37.57059 | 11918 ft | 313 kts | 196° |
| 2026-04-21 19:36 | 55.25314 | 37.55969 | 11919 ft | 314 kts | 196° |
| 2026-04-21 19:36 | 55.23207 | 37.54857 | 11848 ft | 311 kts | 196° |
| 2026-04-21 19:37 | 55.21187 | 37.53869 | 11690 ft | 300 kts | 188° |
| 2026-04-21 19:37 | 55.19131 | 37.53538 | 11285 ft | 295 kts | 180° |
| 2026-04-21 19:37 | 55.17091 | 37.53490 | 10825 ft | 293 kts | 178° |
| 2026-04-21 19:37 | 55.15054 | 37.53449 | 10376 ft | 291 kts | 179° |
| 2026-04-21 19:38 | 55.13051 | 37.53003 | 9961 ft | 294 kts | 202° |
| 2026-04-21 19:38 | 55.11449 | 37.50911 | 9718 ft | 287 kts | 234° |
| 2026-04-21 19:38 | 55.10613 | 37.47837 | 9587 ft | 274 kts | 262° |
| 2026-04-21 19:38 | 55.10563 | 37.44564 | 9618 ft | 270 kts | 284° |
| 2026-04-21 19:39 | 55.11222 | 37.41579 | 9616 ft | 260 kts | 308° |
| 2026-04-21 19:39 | 55.12458 | 37.39352 | 9628 ft | 253 kts | 329° |
| 2026-04-21 19:39 | 55.14025 | 37.38061 | 9619 ft | 248 kts | 351° |
| 2026-04-21 19:39 | 55.15723 | 37.37969 | 9626 ft | 244 kts | 13° |
| 2026-04-21 19:40 | 55.17276 | 37.39078 | 9624 ft | 243 kts | 35° |
| 2026-04-21 19:40 | 55.18439 | 37.41213 | 9626 ft | 244 kts | 58° |
| 2026-04-21 19:40 | 55.19010 | 37.44016 | 9626 ft | 249 kts | 80° |
| 2026-04-21 19:40 | 55.18892 | 37.47053 | 9623 ft | 256 kts | 103° |
| 2026-04-21 19:41 | 55.18079 | 37.49843 | 9617 ft | 263 kts | 126° |
| 2026-04-21 19:41 | 55.16626 | 37.51828 | 9625 ft | 270 kts | 151° |
| 2026-04-21 19:41 | 55.14808 | 37.52722 | 9618 ft | 276 kts | 174° |
| 2026-04-21 19:41 | 55.12895 | 37.52393 | 9620 ft | 279 kts | 197° |
| 2026-04-21 19:42 | 55.11233 | 37.50699 | 9578 ft | 280 kts | 226° |
| 2026-04-21 19:42 | 55.10194 | 37.47852 | 9282 ft | 280 kts | 256° |
| 2026-04-21 19:42 | 55.10043 | 37.44542 | 9017 ft | 271 kts | 284° |
| 2026-04-21 19:42 | 55.10751 | 37.41595 | 8745 ft | 260 kts | 311° |
| 2026-04-21 19:43 | 55.12064 | 37.39533 | 8485 ft | 251 kts | 333° |
| 2026-04-21 19:43 | 55.13666 | 37.38469 | 8213 ft | 245 kts | 351° |
| 2026-04-21 19:43 | 55.15334 | 37.37997 | 7958 ft | 242 kts | 354° |
| 2026-04-21 19:43 | 55.16971 | 37.37649 | 7866 ft | 234 kts | 0° |
| 2026-04-21 19:44 | 55.18540 | 37.38122 | 7915 ft | 231 kts | 25° |
| 2026-04-21 19:44 | 55.19863 | 37.39764 | 7990 ft | 239 kts | 47° |
| 2026-04-21 19:44 | 55.20719 | 37.42272 | 7830 ft | 243 kts | 70° |
| 2026-04-21 19:44 | 55.20915 | 37.45215 | 7702 ft | 248 kts | 94° |
| 2026-04-21 19:45 | 55.20409 | 37.48109 | 7572 ft | 253 kts | 117° |
| 2026-04-21 19:45 | 55.19298 | 37.50505 | 7510 ft | 255 kts | 137° |
| 2026-04-21 19:45 | 55.17752 | 37.52007 | 7505 ft | 257 kts | 161° |
| 2026-04-21 19:45 | 55.15968 | 37.52346 | 7518 ft | 262 kts | 185° |
| 2026-04-21 19:46 | 55.14206 | 37.51463 | 7507 ft | 267 kts | 208° |
| 2026-04-21 19:46 | 55.12803 | 37.49385 | 7499 ft | 265 kts | 238° |
| 2026-04-21 19:46 | 55.12158 | 37.46443 | 7510 ft | 258 kts | 267° |
| 2026-04-21 19:46 | 55.12378 | 37.43405 | 7515 ft | 252 kts | 295° |
| 2026-04-21 19:47 | 55.13345 | 37.40930 | 7518 ft | 246 kts | 321° |
| 2026-04-21 19:47 | 55.14768 | 37.39363 | 7504 ft | 242 kts | 342° |
| 2026-04-21 19:47 | 55.16385 | 37.38559 | 7516 ft | 241 kts | 349° |
| 2026-04-21 19:47 | 55.18004 | 37.37916 | 7510 ft | 243 kts | 349° |
| 2026-04-21 19:48 | 55.19669 | 37.37473 | 7507 ft | 242 kts | 359° |
| 2026-04-21 19:48 | 55.21354 | 37.37420 | 7503 ft | 242 kts | 1° |
| 2026-04-21 19:48 | 55.23041 | 37.37407 | 7503 ft | 243 kts | 1° |
| 2026-04-21 19:48 | 55.24744 | 37.37366 | 7178 ft | 246 kts | 0° |
| 2026-04-21 19:49 | 55.26442 | 37.37300 | 6886 ft | 243 kts | 360° |
| 2026-04-21 19:49 | 55.28122 | 37.37223 | 6582 ft | 239 kts | 360° |
| 2026-04-21 19:49 | 55.29766 | 37.37143 | 6283 ft | 233 kts | 360° |
| 2026-04-21 19:49 | 55.31366 | 37.36772 | 5966 ft | 233 kts | 339° |
| 2026-04-21 19:50 | 55.32276 | 37.35832 | 5858 ft | 228 kts | 324° |
| 2026-04-21 19:50 | 55.33806 | 37.33229 | 5581 ft | 230 kts | 316° |
| 2026-04-21 19:50 | 55.34900 | 37.31163 | 5372 ft | 232 kts | 316° |
| 2026-04-21 19:50 | 55.36001 | 37.29094 | 5160 ft | 231 kts | 316° |
| 2026-04-21 19:51 | 55.37101 | 37.27039 | 4955 ft | 230 kts | 316° |
| 2026-04-21 19:51 | 55.38189 | 37.24997 | 4774 ft | 228 kts | 316° |
| 2026-04-21 19:51 | 55.39271 | 37.22977 | 4596 ft | 226 kts | 316° |
| 2026-04-21 19:51 | 55.40342 | 37.20979 | 4418 ft | 224 kts | 316° |
| 2026-04-21 19:52 | 55.41410 | 37.18988 | 4244 ft | 223 kts | 316° |
| 2026-04-21 19:52 | 55.42472 | 37.17006 | 4072 ft | 222 kts | 317° |
| 2026-04-21 19:52 | 55.43532 | 37.15030 | 3908 ft | 221 kts | 317° |
| 2026-04-21 19:52 | 55.44646 | 37.13166 | 3746 ft | 222 kts | 323° |
| 2026-04-21 19:53 | 55.45819 | 37.11428 | 3579 ft | 224 kts | 324° |
| 2026-04-21 19:53 | 55.47004 | 37.09678 | 3416 ft | 219 kts | 324° |
| 2026-04-21 19:53 | 55.48147 | 37.07979 | 3239 ft | 210 kts | 324° |
| 2026-04-21 19:53 | 55.49272 | 37.06436 | 3052 ft | 199 kts | 336° |
| 2026-04-21 19:54 | 55.50534 | 37.05635 | 2934 ft | 190 kts | 346° |
| 2026-04-21 19:54 | 55.51761 | 37.04926 | 2779 ft | 181 kts | 345° |
| 2026-04-21 19:54 | 55.52921 | 37.04285 | 2616 ft | 166 kts | 354° |
| 2026-04-21 19:54 | 55.53953 | 37.04657 | 2551 ft | 150 kts | 33° |
| 2026-04-21 19:55 | 55.54577 | 37.06138 | 2429 ft | 155 kts | 67° |
| 2026-04-21 19:55 | 55.54959 | 37.07855 | 2342 ft | 144 kts | 64° |
| 2026-04-21 19:55 | 55.55335 | 37.09444 | 2183 ft | 137 kts | 63° |
| 2026-04-21 19:55 | 55.55733 | 37.10953 | 2191 ft | 135 kts | 63° |
| 2026-04-21 19:56 | 55.56103 | 37.12509 | 2059 ft | 138 kts | 64° |
| 2026-04-21 19:56 | 55.56459 | 37.14081 | 1875 ft | 138 kts | 65° |
| 2026-04-21 19:56 | 55.56814 | 37.15670 | 1683 ft | 140 kts | 64° |
| 2026-04-21 19:56 | 55.57178 | 37.17286 | 1498 ft | 143 kts | 65° |
| 2026-04-21 19:57 | 55.57549 | 37.18944 | 1298 ft | 148 kts | 66° |
| 2026-04-21 19:57 | 55.57927 | 37.20645 | 1096 ft | 149 kts | 67° |
| 2026-04-21 19:57 | 55.58308 | 37.22351 | 919 ft | 148 kts | 67° |
| 2026-04-21 19:57 | 55.58686 | 37.24047 | 723 ft | 148 kts | 67° |
| 2026-04-21 19:58 | 55.59034 | 37.25605 | 690 ft | 118 kts | 68° |
| 2026-04-21 19:58 | 55.59279 | 37.26697 | 683 ft | 72 kts | 68° |
| 2026-04-21 19:58 | 55.59402 | 37.27244 | 691 ft | 32 kts | 68° |
| 2026-04-21 19:58 | 55.59470 | 37.27415 | 693 ft | 16 kts | 51° |
| 2026-04-21 19:59 | 55.59544 | 37.27536 | 689 ft | 13 kts | 38° |
| 2026-04-21 19:59 | 55.59616 | 37.27638 | 690 ft | 13 kts | 38° |
| 2026-04-21 19:59 | 55.59688 | 37.27732 | 691 ft | 13 kts | 27° |
| 2026-04-21 19:59 | 55.59770 | 37.27787 | 688 ft | 12 kts | 18° |
| 2026-04-21 20:00 | 55.59863 | 37.27841 | 693 ft | 16 kts | 18° |
| 2026-04-21 20:00 | 55.59947 | 37.27886 | 689 ft | 10 kts | 8° |
| 2026-04-21 20:00 | 55.60006 | 37.27900 | 692 ft | 8 kts | 22° |
| 2026-04-21 20:00 | 55.60033 | 37.27920 | 693 ft | 1 kts | 24° |
| 2026-04-21 20:01 | 55.60039 | 37.27925 | 693 ft | 0 kts | 24° |